• Join FlightAware (Why Join?)
  • Login
  • US Flag 
03:21PM EDT


 

Airport Tracker/Info


-or-


 

Live Flight TrackerFlight Track Log ✈ NGF88J ✈ 13-Oct-2013 ✈ KMAF - KDWH

Flight Track Log - Related Links

Times and Time Zones

All times are in EDT time to prevent confusion due to time zone crossing. See the NGF88J flight status page for this flight to view local times or setup timezone preferences in your user account.

Time Position Orientation Groundspeed Altitude Reporting Facility
EDT Latitude Longitude Course Direction KTS MPH feet Rate Location/Type
08:13PM 31.7935 -101.6165 107° East  Level Estimated
08:14PM 31.7810 -101.5678 107° East  Level Estimated
08:15PM 31.7685 -101.5192 107° East  Level Estimated
08:16PM 31.7559 -101.4706 107° East  Level Estimated
08:17PM 31.7433 -101.4220 107° East  Level Estimated
08:18PM 31.7307 -101.3734 107° East  Level Estimated
08:19PM 31.7181 -101.3248 107° East  Level Estimated
08:20PM 31.7055 -101.2763 107° East  Level Estimated
08:20PM 31.6411 -102.3300 107° East 149 171 10,000  Level Fort Worth Center
08:21PM 31.6928 -101.2277 107° East  Level Estimated
08:21PM 31.6086 -102.3600 218° Southwest 154 177 10,000  Level Fort Worth Center
08:22PM 31.6801 -101.1792 107° East  Level Estimated
08:22PM 31.5886 -102.3783 218° Southwest 149 171 10,000  Level Houston Center
08:23PM 31.6675 -101.1306 107° East  Level Estimated
08:23PM 31.5556 -102.4106 220° Southwest 152 175 10,100  Level Houston Center
08:24PM 31.6548 -101.0821 107° East  Level Estimated
08:24PM 31.5158 -102.4514 221° Southwest 153 176 10,000  Level Albuquerque Center
08:25PM 31.4844 -102.4825 220° Southwest 150 173 10,000  Level Albuquerque Center
08:26PM 31.4528 -102.5136 220° Southwest 148 170 10,000  Level Albuquerque Center
08:27PM 31.4236 -102.5433 221° Southwest 149 171 10,000  Level Albuquerque Center
08:28PM 31.3853 -102.5803 219° Southwest 150 173 10,000  Level Albuquerque Center
08:29PM 31.3531 -102.6106 219° Southwest 149 171 10,000  Level Albuquerque Center
08:30PM 31.3208 -102.6392 217° Southwest 147 169 10,000  Level Albuquerque Center
08:31PM 31.2906 -102.6689 220° Southwest 144 166 10,000  Level Albuquerque Center
08:32PM 31.2581 -102.6994 219° Southwest 148 170 10,000  Level Albuquerque Center
08:33PM 31.2272 -102.7314 222° Southwest 149 171 10,000  Level Albuquerque Center
08:34PM 31.1897 -102.7683 220° Southwest 147 169 10,000  Level Albuquerque Center
08:35PM 31.1569 -102.7986 218° Southwest 150 173 10,000  Level Albuquerque Center
08:36PM 31.1256 -102.8281 219° Southwest 147 169 10,000  Level Albuquerque Center
08:37PM 31.0931 -102.8578 218° Southwest 147 169 10,000  Level Albuquerque Center
08:38PM 31.0608 -102.8867 218° Southwest 147 169 10,000  Level Albuquerque Center
08:39PM 31.0289 -102.9147 217° Southwest 145 167 10,000  Level Albuquerque Center
08:40PM 30.9972 -102.9428 217° Southwest 144 166 10,000  Level Albuquerque Center
08:41PM 30.9536 -102.9436 181° South 164 189 10,000  Level Albuquerque Center
08:42PM 30.9444 -102.8889 101° East 172 198 10,000  Level Albuquerque Center
08:43PM 30.9353 -102.8322 101° East 175 201 10,000  Level Albuquerque Center
08:44PM 30.9281 -102.7739 98° East 180 207 10,000  Level Albuquerque Center
08:45PM 30.9214 -102.7161 98° East 181 208 10,000  Level Albuquerque Center
08:47PM 30.9172 -102.6564 95° East 184 212 10,000  Level Albuquerque Center
08:48PM 30.9089 -102.5853 98° East 186 214 10,000  Level Albuquerque Center
08:49PM 30.9031 -102.5256 96° East 186 214 10,000  Level Albuquerque Center
08:50PM 30.8989 -102.4661 95° East 186 214 10,000  Level Albuquerque Center
08:51PM 30.8942 -102.4067 95° East 185 213 10,000  Level Albuquerque Center
08:52PM 30.8903 -102.3489 94° East 182 209 10,100  Climbing Houston Center
08:53PM 30.8850 -102.2917 96° East 180 207 10,100  Level Houston Center
08:54PM 30.8794 -102.2350 97° East 178 205 10,100  Level Houston Center
08:55PM 30.8747 -102.1778 95° East 178 205 10,100  Level Houston Center
08:56PM 30.8697 -102.1231 96° East 175 201 10,100  Level Houston Center
08:57PM 30.8633 -102.0678 98° East 173 199 10,100  Level Houston Center
08:58PM 30.8561 -102.0028 97° East 171 197 10,100  Level Houston Center
08:59PM 30.8508 -101.9486 96° East 170 196 10,100  Level Houston Center
09:00PM 30.8458 -101.8944 96° East 169 194 10,100  Level Houston Center
09:01PM 30.8397 -101.8414 98° East 168 193 10,100  Level Houston Center
09:02PM 30.8328 -101.7881 99° East 167 192 10,100  Level Houston Center
09:03PM 30.8261 -101.7333 98° East 170 196 10,100  Level Houston Center
09:04PM 30.8206 -101.6783 97° East 172 198 10,100  Level Houston Center
09:05PM 30.8156 -101.6231 96° East 173 199 10,100  Level Houston Center
09:06PM 30.8092 -101.5658 97° East 171 197 10,100  Level Houston Center
09:07PM 30.8064 -101.5114 93° East 170 196 10,100  Level Houston Center
09:08PM 30.7992 -101.4472 97° East 167 192 10,100  Level Houston Center
09:09PM 30.7939 -101.3942 97° East 166 191 10,100  Level Houston Center
09:10PM 30.7883 -101.3406 97° East 167 192 10,100  Level Houston Center
09:11PM 30.7839 -101.2878 96° East 166 191 10,100  Level Houston Center
09:12PM 30.7769 -101.2358 99° East 164 189 10,100  Level Houston Center
09:13PM 30.7711 -101.1864 98° East 158 182 10,100  Level Houston Center
09:14PM 30.7636 -101.1375 100° East 161 185 10,100  Level Houston Center
09:15PM 30.7575 -101.0831 97° East 161 185 10,100  Level Houston Center
09:16PM 30.7519 -101.0317 97° East 160 184 10,100  Level Houston Center
09:17PM 30.7433 -100.9714 99° East 159 183 10,100  Level Houston Center
09:18PM 30.7372 -100.9208 98° East 158 182 10,100  Level Houston Center
09:19PM 30.7322 -100.8703 97° East 158 182 10,100  Level Houston Center
09:20PM 30.7256 -100.8197 99° East 158 182 10,100  Level Houston Center
09:21PM 30.7194 -100.7686 98° East 159 183 10,100  Level Houston Center
09:22PM 30.7136 -100.7172 98° East 160 184 10,100 -60 Level Houston Center
09:23PM 30.7078 -100.6681 98° East 157 181 10,000 -60 Descending Houston Center
09:24PM 30.7017 -100.6158 98° East 160 184 10,000  Level Houston Center
09:25PM 30.6958 -100.5661 98° East 157 181 10,000  Level Houston Center
09:26PM 30.6900 -100.5161 98° East 156 180 10,000  Level Houston Center
09:27PM 30.6819 -100.4547 99° East 159 183 10,000  Level Houston Center
09:28PM 30.6744 -100.4042 100° East 159 183 10,000  Level Houston Center
09:29PM 30.6667 -100.3539 100° East 159 183 10,000  Level Houston Center
09:30PM 30.6592 -100.3028 100° East 160 184 10,000  Level Houston Center
09:31PM 30.6531 -100.2508 98° East 161 185 10,000  Level Houston Center
09:32PM 30.6464 -100.1989 98° East 163 188 10,000  Level Houston Center
09:33PM 30.6406 -100.1469 97° East 162 186 10,000  Level Houston Center
09:35PM 30.6333 -100.0961 99° East 161 185 10,000  Level Houston Center
09:36PM 30.6261 -100.0431 99° East 165 190 10,000  Level Houston Center
09:37PM 30.6203 -99.9906 97° East 164 189 10,000  Level Houston Center
09:38PM 30.6139 -99.9397 98° East 161 185 10,000  Level Houston Center
09:39PM 30.6081 -99.8883 98° East 161 185 10,000  Level Houston Center
09:40PM 30.6011 -99.8261 97° East 162 186 10,000  Level Houston Center
09:41PM 30.6036 -99.7742 87° East 162 186 10,000  Level Houston Center
09:42PM 30.6083 -99.7242 84° East 160 184 10,000  Level Houston Center
09:43PM 30.6125 -99.6736 85° East 158 182 10,000  Level Houston Center
09:44PM 30.6150 -99.6211 87° East 161 185 10,000  Level Houston Center
09:45PM 30.6175 -99.5686 87° East 163 188 10,000  Level Houston Center
09:46PM 30.6222 -99.5181 84° East 160 184 10,000  Level Houston Center
09:47PM 30.6253 -99.4667 86° East 159 183 10,000  Level Houston Center
09:48PM 30.6300 -99.4158 84° East 159 183 10,000  Level Houston Center
09:49PM 30.6317 -99.3625 88° East 163 188 10,000  Level Houston Center
09:50PM 30.6356 -99.3097 85° East 164 189 10,000  Level Houston Center
09:51PM 30.6383 -99.2569 86° East 164 189 10,000  Level Houston Center
09:52PM 30.6428 -99.2000 85° East 162 186 10,000  Level Houston Center
09:53PM 30.6478 -99.1422 84° East 163 188 10,000  Level Houston Center
09:54PM 30.6503 -99.0933 87° East 164 189 10,000  Level Houston Center
09:55PM 30.6553 -99.0403 84° East 164 189 10,000  Level Houston Center
09:56PM 30.6586 -98.9858 86° East 166 191 10,000  Level Houston Center
09:57PM 30.6617 -98.9325 86° East 165 190 10,000  Level Houston Center
09:58PM 30.6669 -98.8781 84° East 168 193 10,000  Level Houston Center
09:59PM 30.6692 -98.8233 87° East 167 192 10,000  Level Houston Center
10:00PM 30.6739 -98.7697 84° East 166 191 10,000  Level Houston Center
10:01PM 30.6781 -98.7158 85° East 166 191 10,000  Level Houston Center
10:02PM 30.6828 -98.6622 84° East 166 191 10,000  Level Houston Center
10:03PM 30.6892 -98.6081 82° East 166 191 10,000  Level Houston Center
10:04PM 30.6936 -98.5544 84° East 166 191 10,000  Level Houston Center
10:05PM 30.6989 -98.5008 83° East 166 191 10,100  Climbing Houston Center
10:06PM 30.7053 -98.4472 82° East 167 192 10,100  Level Houston Center
10:07PM 30.7100 -98.3950 84° East 163 188 10,100  Level Houston Center
10:08PM 30.7136 -98.3411 86° East 164 189 10,100  Level Houston Center
10:09PM 30.7164 -98.2869 87° East 166 191 10,100  Level Houston Center
10:10PM 30.7211 -98.2333 84° East 166 191 10,100  Level Houston Center
10:11PM 30.7261 -98.1722 85° East 163 188 10,200  Climbing Houston Center
10:12PM 30.7297 -98.1206 85° East 160 184 10,100 -60 Descending Houston Center
10:13PM 30.7319 -98.0697 87° East 158 182 10,100  Level Houston Center
10:14PM 30.7317 -98.0192 90° East 156 180 10,100  Level Houston Center
10:15PM 30.7269 -97.9689 96° East 155 178 10,100  Level Houston Center
10:16PM 30.7211 -97.9178 98° East 158 182 10,100  Level Houston Center
10:17PM 30.7142 -97.8667 99° East 159 183 10,100  Level Houston Center
10:18PM 30.7078 -97.8156 98° East 159 183 10,100  Level Houston Center
10:19PM 30.7006 -97.7661 100° East 157 181 10,100  Level Houston Center
10:20PM 30.6936 -97.7161 99° East 155 178 10,100  Level Houston Center
10:21PM 30.6903 -97.6650 94° East 157 181 10,100  Level Houston Center
10:22PM 30.6961 -97.6136 82° East 158 182 10,100  Level Houston Center
10:23PM 30.7022 -97.5619 82° East 160 184 10,100  Level Houston Center
10:24PM 30.7081 -97.5081 83° East 165 190 10,200  Climbing Houston Center
10:25PM 30.7142 -97.4547 82° East 166 191 10,100 -60 Descending Houston Center
10:26PM 30.7167 -97.4058 87° East 156 180 10,100  Level Houston Center
10:27PM 30.7094 -97.3575 100° East 151 174 10,100 -120 Level Houston Center
10:28PM 30.7008 -97.3075 101° East 155 178 9,900 -180 Descending Houston Center
10:29PM 30.6911 -97.2561 102° East 161 185 9,800 -240 Descending Houston Center
10:30PM 30.6817 -97.2047 102° East 162 186 9,500 -300 Descending Houston Center
10:31PM 30.6728 -97.1536 101° East 162 186 9,200 -240 Descending Houston Center
10:32PM 30.6642 -97.1011 101° East 165 190 9,100 -60 Descending Houston Center
10:33PM 30.6539 -97.0503 103° East 158 182 9,100  Level Houston Center
10:33PM 30.6539 -97.0514 270° West 158 182 9,100  Level Houston Center
10:34PM 30.6447 -96.9997 102° East 162 186 9,100  Level Houston Center
10:35PM 30.6342 -96.9578 106° East 161 185 9,100  Level Houston Center
10:35PM 30.6344 -96.9494 88° East 160 184 9,100  Level Houston Center
10:36PM 30.6261 -96.9078 103° East 163 188 9,100  Level Houston Center
10:36PM 30.6250 -96.8994 99° East 158 182 9,100  Level Houston Center
10:37PM 30.6136 -96.8556 107° East 156 180 9,100  Level Houston Center
10:37PM 30.6128 -96.8497 99° East 159 183 9,100  Level Houston Center
10:38PM 30.6017 -96.8133 110° East 150 173 9,100  Level Houston Center
10:38PM 30.5997 -96.8022 101° East 155 178 9,100  Level Houston Center
10:39PM 30.5867 -96.7567 108° East 158 182 9,100  Level Houston Center
10:39PM 30.5842 -96.7458 105° East 158 182 9,100  Level Houston Center
10:40PM 30.5697 -96.7028 111° Southeast 159 183 9,100  Level Houston Center
10:41PM 30.5708 -96.6969 78° East 158 182 9,100  Level Houston Center
10:41PM 30.5597 -96.6553 107° East 155 178 9,100  Level Houston Center
10:42PM 30.5589 -96.6486 98° East 156 180 9,100 -120 Level Houston Center
10:43PM 30.5450 -96.5989 108° East 159 183 9,000 -240 Descending Houston Center
10:43PM 30.5361 -96.5708 110° East 161 185 8,800 -240 Descending Houston Center
10:44PM 30.5297 -96.5481 108° East 166 191 8,800 -120 Level Houston Center
10:44PM 30.5189 -96.5144 111° Southeast 172 198 8,700 -240 Descending Houston Center
10:45PM 30.5156 -96.4961 102° East 168 193 8,600 -300 Descending Houston Center
10:45PM 30.5036 -96.4581 110° East 167 192 8,400 -300 Descending Houston Center
10:46PM 30.4997 -96.4450 109° East 168 193 8,300 -360 Descending Houston Center
10:46PM 30.4867 -96.4042 110° East 173 199 8,000 -420 Descending Houston Center
10:47PM 30.4844 -96.3908 101° East 173 199 7,900 -360 Descending Houston Center
10:47PM 30.4719 -96.3525 111° Southeast 175 201 7,700 -240 Descending Houston Center
10:48PM 30.4694 -96.3372 101° East 173 199 7,700 -240 Level Houston Center
10:48PM 30.4589 -96.2983 107° East 169 194 7,500 -300 Descending Houston Center
10:49PM 30.4558 -96.2839 104° East 172 198 7,400 -300 Descending Houston Center
10:49PM 30.4442 -96.2467 110° East 166 191 7,200 -240 Descending Houston Center
10:50PM 30.4425 -96.2331 98° East 165 190 7,200 -300 Level Houston Center
10:50PM 30.4294 -96.1975 113° Southeast 158 182 6,900 -420 Descending Houston Center
10:51PM 30.4264 -96.1839 105° East 162 186 6,800 -540 Descending Houston Center
10:51PM 30.4147 -96.1483 111° Southeast 164 189 6,400 -540 Descending Houston Center
10:52PM 30.4119 -96.1347 103° East 161 185 6,300 -540 Descending Houston Center
10:52PM 30.4000 -96.0992 111° Southeast 164 189 5,900 -540 Descending Houston Center
10:53PM 30.3967 -96.0839 104° East 165 190 5,800 -420 Descending Houston Center
10:53PM 30.3856 -96.0500 111° Southeast 157 181 5,500 -300 Descending Houston Center
10:54PM 30.3850 -96.0428 95° East 161 185 5,500 -420 Level Houston Center
10:54PM 30.3703 -95.9961 110° East 164 189 5,100 -420 Descending Houston Center
10:55PM 30.3694 -95.9897 99° East 160 184 5,100 -240 Level Houston Center
10:55PM 30.3578 -95.9492 108° East 155 178 4,900 -300 Descending Houston Center
10:56PM 30.3561 -95.9422 106° East 157 181 4,800 -420 Descending Houston Center
10:56PM 30.3411 -95.9025 114° Southeast 159 183 4,500 -300 Descending Houston Center
10:57PM 30.3400 -95.8953 100° East 157 181 4,500 -300 Level Houston Center
10:57PM 30.3225 -95.8564 118° Southeast 153 176 4,200 -300 Descending Houston Center
10:58PM 30.3217 -95.8514 101° East 153 176 4,200 -360 Level Houston Center
10:59PM 30.2964 -95.7989 119° Southeast 151 174 3,800 -360 Descending Houston Center
11:00PM 30.2783 -95.7600 118° Southeast 144 166 3,500 -300 Descending Houston Center
11:00PM 30.2794 -95.7569 67° East 148 170 3,500 -600 Level Houston Center
11:01PM 30.2575 -95.7139 121° Southeast 155 178 2,900 -480 Descending Houston Center
11:02PM 30.2431 -95.6697 111° Southeast 161 185 2,600 -300 Descending Houston Center
11:02PM 30.2433 -95.6719 278° West 148 170 2,600 -480 Level Houston Center
11:03PM 30.2489 -95.6158 83° East 151 174 2,100 -360 Descending Houston Center
11:04PM 30.2519 -95.5817 84° East 150 173 2,000 -120 Descending Houston Center
11:04PM 30.2531 -95.5747 80° East 152 175 2,000 60 Level Houston Center
11:05PM 30.2272 -95.5628 158° South 139 160 2,100 60 Climbing Houston Center
11:05PM 30.2181 -95.5633 183° South 150 173 2,100  Level Houston Center